createdAt,value
2019-01-30T00:01:42.585Z,72.86
2019-01-30T00:04:09.310Z,74.26
2019-01-30T00:06:36.272Z,73.62
2019-01-30T00:09:06.577Z,74.94
2019-01-30T00:11:33.519Z,75.87
2019-01-30T00:14:00.268Z,76.61
2019-01-30T00:16:27.237Z,76.49
2019-01-30T00:18:54.204Z,74.97
2019-01-30T00:21:20.982Z,75.02
2019-01-30T00:23:47.987Z,73.37
2019-01-30T00:26:15.185Z,72.96
2019-01-30T00:28:42.164Z,72.86
2019-01-30T00:31:09.170Z,72.76
2019-01-30T00:33:35.924Z,73.34
2019-01-30T00:36:02.898Z,72.54
2019-01-30T00:38:29.797Z,71.96
2019-01-30T00:40:56.922Z,71.92
2019-01-30T00:43:24.012Z,71.92
2019-01-30T00:45:51.041Z,71.66
2019-01-30T00:48:17.746Z,71.59
2019-01-30T00:50:44.589Z,71.90
2019-01-30T00:53:12.043Z,72.54
2019-01-30T00:55:38.791Z,72.67
2019-01-30T00:58:05.476Z,72.73
2019-01-30T01:00:32.018Z,73.24
2019-01-30T01:02:58.593Z,73.58
2019-01-30T01:05:25.215Z,74.12
2019-01-30T01:07:51.922Z,75.00
2019-01-30T01:10:20.503Z,76.15
2019-01-30T01:12:47.083Z,76.08
2019-01-30T01:15:15.274Z,75.47
2019-01-30T01:17:41.858Z,75.66
2019-01-30T01:20:14.160Z,74.95
2019-01-30T01:22:41.238Z,75.60
2019-01-30T01:25:12.383Z,75.62
2019-01-30T01:27:39.049Z,76.32
2019-01-30T01:30:10.929Z,77.47
2019-01-30T01:32:37.575Z,77.74
2019-01-30T01:35:07.779Z,78.49
2019-01-30T01:37:36.334Z,78.22
2019-01-30T01:40:08.672Z,76.85
2019-01-30T01:42:38.140Z,77.20
2019-01-30T01:45:10.485Z,76.92
2019-01-30T01:47:37.056Z,76.79
2019-01-30T01:50:09.069Z,76.73
2019-01-30T01:52:35.844Z,76.67
2019-01-30T01:55:06.871Z,76.71
2019-01-30T01:57:33.440Z,76.48
2019-01-30T02:00:00.091Z,77.11
2019-01-30T02:02:26.888Z,78.34
2019-01-30T02:04:53.448Z,78.47
2019-01-30T02:07:20.042Z,77.29
2019-01-30T02:09:46.637Z,77.84
2019-01-30T02:12:14.884Z,78.38
2019-01-30T02:14:41.476Z,77.50
2019-01-30T02:17:08.102Z,76.68
2019-01-30T02:19:34.712Z,76.67
2019-01-30T02:22:01.351Z,76.59
2019-01-30T02:24:27.927Z,76.74
2019-01-30T02:26:57.499Z,76.63
2019-01-30T02:29:24.163Z,77.43
2019-01-30T02:31:50.798Z,78.67
2019-01-30T02:34:17.364Z,78.72
2019-01-30T02:36:45.829Z,77.45
2019-01-30T02:39:12.456Z,77.73
2019-01-30T02:41:39.100Z,79.32
2019-01-30T02:44:05.715Z,79.12
2019-01-30T02:46:32.445Z,77.82
2019-01-30T02:48:59.067Z,78.07
2019-01-30T02:51:25.710Z,79.02
2019-01-30T02:53:52.292Z,78.00
2019-01-30T02:56:18.927Z,77.24
2019-01-30T02:58:45.511Z,77.59
2019-01-30T03:01:12.189Z,77.13
2019-01-30T03:03:38.744Z,77.60
2019-01-30T03:06:05.335Z,78.80
2019-01-30T03:08:31.918Z,78.47
2019-01-30T03:10:58.510Z,77.51
2019-01-30T03:13:25.087Z,78.09
2019-01-30T03:15:51.985Z,77.72
2019-01-30T03:18:18.938Z,78.36
2019-01-30T03:20:45.900Z,78.74
2019-01-30T03:23:12.814Z,78.34
2019-01-30T03:25:39.382Z,79.13
2019-01-30T03:28:05.985Z,78.27
2019-01-30T03:30:32.701Z,78.66
2019-01-30T03:32:59.349Z,77.55
2019-01-30T03:35:25.915Z,77.89
2019-01-30T03:37:52.629Z,77.80
2019-01-30T03:40:20.683Z,77.74
2019-01-30T03:42:47.244Z,77.64
2019-01-30T03:45:18.023Z,77.98
2019-01-30T03:47:44.708Z,78.71
2019-01-30T03:50:13.125Z,78.64
2019-01-30T03:52:39.762Z,78.17
2019-01-30T03:55:11.109Z,79.22
2019-01-30T03:57:37.680Z,78.35
2019-01-30T04:00:10.005Z,79.23
2019-01-30T04:02:36.632Z,79.73
2019-01-30T04:05:06.078Z,79.85
2019-01-30T04:07:32.870Z,79.68
2019-01-30T04:09:59.446Z,79.95
2019-01-30T04:13:22.381Z,79.62
2019-01-30T04:15:48.954Z,79.50
2019-01-30T04:18:15.622Z,78.75
2019-01-30T04:20:42.263Z,79.13
2019-01-30T04:23:08.892Z,78.58
2019-01-30T04:25:35.461Z,78.42
2019-01-30T04:28:02.026Z,78.08
2019-01-30T04:30:28.690Z,77.82
2019-01-30T04:32:55.219Z,77.62
2019-01-30T04:35:21.777Z,78.48
2019-01-30T04:37:49.634Z,78.78
2019-01-30T04:40:19.990Z,78.56
2019-01-30T04:42:46.605Z,77.88
2019-01-30T04:45:18.553Z,78.95
2019-01-30T04:47:45.249Z,79.29
2019-01-30T04:50:11.873Z,79.37
2019-01-30T04:52:38.544Z,79.76
2019-01-30T04:55:07.925Z,79.43
2019-01-30T04:57:34.542Z,79.74
2019-01-30T05:00:05.594Z,79.70
2019-01-30T05:02:32.238Z,79.18
2019-01-30T05:04:58.868Z,79.44
2019-01-30T05:07:25.420Z,79.01
2019-01-30T05:09:52.037Z,79.31
2019-01-30T05:12:18.655Z,79.46
2019-01-30T05:14:45.314Z,79.36
2019-01-30T05:17:13.051Z,79.40
2019-01-30T05:19:39.707Z,79.34
2019-01-30T05:22:06.273Z,79.16
2019-01-30T05:24:32.953Z,78.57
2019-01-30T05:26:59.559Z,78.88
2019-01-30T05:29:26.124Z,78.80
2019-01-30T05:32:00.902Z,78.82
2019-01-30T05:34:21.320Z,78.45
2019-01-30T05:36:47.897Z,78.93
2019-01-30T05:39:14.628Z,78.74
2019-01-30T05:41:41.205Z,78.82
2019-01-30T05:44:10.603Z,78.86
2019-01-30T05:46:37.209Z,78.90
2019-01-30T05:49:03.783Z,78.63
2019-01-30T05:51:30.454Z,78.94
2019-01-30T05:53:57.151Z,79.16
2019-01-30T05:56:23.773Z,79.15
2019-01-30T05:58:50.359Z,79.31
2019-01-30T06:01:16.939Z,79.41
2019-01-30T06:03:43.574Z,79.43
2019-01-30T06:06:10.134Z,78.98
2019-01-30T06:08:36.763Z,79.17
2019-01-30T06:11:03.351Z,79.35
2019-01-30T06:13:29.921Z,79.18
2019-01-30T06:15:56.545Z,78.86
2019-01-30T06:18:23.113Z,78.56
2019-01-30T06:20:52.540Z,78.44
2019-01-30T06:23:19.090Z,78.29
2019-01-30T06:25:45.711Z,77.95
2019-01-30T06:28:12.379Z,78.89
2019-01-30T06:30:39.038Z,79.35
2019-01-30T06:33:05.678Z,78.61
2019-01-30T06:35:32.233Z,78.81
2019-01-30T06:37:58.843Z,78.88
2019-01-30T06:40:30.447Z,79.17
2019-01-30T06:42:56.988Z,78.82
2019-01-30T06:45:23.764Z,78.74
2019-01-30T06:47:50.330Z,78.91
2019-01-30T06:50:16.900Z,78.64
2019-01-30T06:52:43.494Z,78.10
2019-01-30T06:55:10.196Z,78.53
2019-01-30T06:57:37.134Z,79.14
2019-01-30T07:00:09.463Z,78.94
2019-01-30T07:02:36.110Z,78.73
2019-01-30T07:05:04.731Z,78.60
2019-01-30T07:07:31.340Z,79.31
2019-01-30T07:09:57.954Z,78.80
2019-01-30T07:12:24.562Z,79.02
2019-01-30T07:14:51.192Z,78.57
2019-01-30T07:17:17.788Z,78.74
2019-01-30T07:19:44.347Z,78.87
2019-01-30T07:22:10.969Z,79.27
2019-01-30T07:24:37.555Z,78.42
2019-01-30T07:27:04.091Z,78.63
2019-01-30T07:29:30.737Z,78.43
2019-01-30T07:31:57.322Z,78.65
2019-01-30T07:34:23.896Z,78.51
2019-01-30T07:36:50.497Z,78.55
2019-01-30T07:39:17.164Z,78.46
2019-01-30T07:41:43.991Z,78.48
2019-01-30T07:44:10.538Z,78.70
2019-01-30T07:46:37.145Z,79.00
2019-01-30T07:49:03.701Z,78.33
2019-01-30T07:51:30.355Z,78.57
2019-01-30T07:53:57.030Z,78.69
2019-01-30T07:56:23.577Z,78.82
2019-01-30T07:58:50.167Z,78.89
2019-01-30T08:01:16.832Z,78.33
2019-01-30T08:03:43.407Z,78.10
2019-01-30T08:06:09.971Z,78.42
2019-01-30T08:08:36.581Z,79.02
2019-01-30T08:11:03.583Z,78.59
2019-01-30T08:13:30.173Z,78.83
2019-01-30T08:15:56.765Z,78.06
2019-01-30T08:18:23.445Z,77.95
2019-01-30T08:20:49.999Z,78.42
2019-01-30T08:23:17.026Z,78.43
2019-01-30T08:25:43.844Z,77.46
2019-01-30T08:28:10.902Z,77.79
2019-01-30T08:30:37.670Z,77.42
2019-01-30T08:33:06.011Z,77.00
2019-01-30T08:35:32.989Z,77.37
2019-01-30T08:38:01.668Z,77.38
2019-01-30T08:40:28.536Z,77.42
2019-01-30T08:42:56.211Z,77.98
2019-01-30T08:45:26.916Z,77.70
2019-01-30T08:47:53.451Z,77.26
2019-01-30T08:50:20.031Z,76.70
2019-01-30T08:52:46.637Z,76.20
2019-01-30T08:55:15.135Z,76.80
2019-01-30T08:57:45.031Z,76.41
2019-01-30T09:00:16.557Z,76.41
2019-01-30T09:02:43.468Z,76.15
2019-01-30T09:05:11.767Z,75.68
2019-01-30T09:07:44.325Z,75.33
2019-01-30T09:11:05.015Z,75.29
2019-01-30T09:13:31.994Z,74.50
2019-01-30T09:15:58.943Z,74.75
2019-01-30T09:18:26.007Z,75.37
2019-01-30T09:20:53.534Z,75.49
2019-01-30T09:23:20.534Z,75.29
2019-01-30T09:25:47.620Z,75.73
2019-01-30T09:28:15.959Z,75.41
2019-01-30T09:30:42.603Z,75.36
2019-01-30T09:33:09.257Z,75.53
2019-01-30T09:35:35.862Z,76.32
2019-01-30T09:38:03.744Z,75.70
2019-01-30T09:40:30.330Z,75.90
2019-01-30T09:42:57.174Z,76.73
2019-01-30T09:45:23.825Z,76.79
2019-01-30T09:47:50.418Z,76.68
2019-01-30T09:50:21.931Z,76.79
2019-01-30T09:52:50.617Z,77.00
2019-01-30T09:55:17.240Z,77.49
2019-01-30T09:57:43.826Z,78.08
2019-01-30T10:00:16.180Z,78.62
2019-01-30T10:02:42.774Z,79.01
2019-01-30T10:05:11.666Z,78.50
2019-01-30T10:07:38.224Z,78.78
2019-01-30T10:10:10.541Z,78.38
2019-01-30T10:12:37.105Z,78.80
2019-01-30T10:15:09.444Z,78.68
2019-01-30T10:17:36.039Z,78.41
2019-01-30T10:20:08.350Z,78.54
2019-01-30T10:22:34.905Z,78.47
2019-01-30T10:25:01.611Z,79.12
2019-01-30T10:27:28.270Z,79.54
2019-01-30T10:29:54.829Z,78.57
2019-01-30T10:32:22.451Z,79.25
2019-01-30T10:34:49.023Z,79.63
2019-01-30T10:37:16.941Z,79.53
2019-01-30T10:39:43.512Z,78.99
2019-01-30T10:42:10.065Z,79.07
2019-01-30T10:44:36.685Z,79.54
2019-01-30T10:47:03.286Z,79.29
2019-01-30T10:49:29.939Z,80.40
2019-01-30T10:51:56.531Z,80.15
2019-01-30T10:54:24.390Z,80.74
2019-01-30T10:56:50.978Z,80.25
2019-01-30T10:59:17.894Z,80.60
2019-01-30T11:01:44.581Z,80.24
2019-01-30T11:04:11.170Z,79.80
2019-01-30T11:06:37.786Z,79.83
2019-01-30T11:09:06.677Z,79.40
2019-01-30T11:11:33.231Z,79.30
2019-01-30T11:13:59.866Z,79.20
2019-01-30T11:16:26.576Z,79.56
2019-01-30T11:18:53.153Z,79.91
2019-01-30T11:21:19.755Z,80.29
2019-01-30T11:23:46.377Z,79.44
2019-01-30T11:26:12.963Z,79.51
2019-01-30T11:28:39.531Z,78.94
2019-01-30T11:31:06.136Z,78.60
2019-01-30T11:33:32.693Z,79.23
2019-01-30T11:35:59.276Z,79.57
2019-01-30T11:38:25.914Z,79.78
2019-01-30T11:40:52.495Z,79.58
2019-01-30T11:43:19.075Z,79.74
2019-01-30T11:45:45.702Z,79.20
2019-01-30T11:48:12.372Z,78.24
2019-01-30T11:50:39.561Z,78.81
2019-01-30T11:53:06.225Z,78.49
2019-01-30T11:55:32.816Z,78.46
2019-01-30T11:57:59.491Z,78.00
2019-01-30T12:00:32.448Z,78.31
2019-01-30T12:02:59.065Z,78.92
2019-01-30T12:05:27.130Z,78.64
2019-01-30T12:07:53.786Z,78.68
2019-01-30T12:10:20.382Z,79.26
2019-01-30T12:12:46.986Z,79.56
2019-01-30T12:15:18.995Z,79.52
2019-01-30T12:17:45.524Z,79.29
2019-01-30T12:20:12.209Z,79.96
2019-01-30T12:22:38.896Z,79.94
2019-01-30T12:25:11.361Z,80.41
2019-01-30T12:27:39.031Z,80.67
2019-01-30T12:30:10.884Z,80.88
2019-01-30T12:32:37.911Z,81.21
2019-01-30T12:35:06.687Z,81.35
2019-01-30T12:37:34.479Z,80.72
2019-01-30T12:40:07.184Z,80.89
2019-01-30T12:42:33.860Z,81.46
2019-01-30T12:45:00.485Z,81.72
2019-01-30T12:47:27.582Z,81.61
2019-01-30T12:49:54.134Z,81.79
2019-01-30T12:52:21.823Z,81.77
2019-01-30T12:54:48.447Z,81.93
2019-01-30T12:57:15.240Z,82.05
2019-01-30T12:59:42.075Z,82.00
2019-01-30T13:02:08.652Z,81.88
2019-01-30T13:04:38.790Z,81.88
2019-01-30T13:07:03.788Z,81.71
2019-01-30T13:09:30.369Z,82.14
2019-01-30T13:11:56.950Z,82.22
2019-01-30T13:14:23.517Z,82.46
2019-01-30T13:16:50.216Z,81.91
2019-01-30T13:19:17.030Z,81.80
2019-01-30T13:21:43.657Z,82.31
2019-01-30T13:24:10.650Z,82.30
2019-01-30T13:26:39.169Z,82.17
2019-01-30T13:29:05.750Z,82.40
2019-01-30T13:31:32.314Z,82.02
2019-01-30T13:33:58.882Z,82.07
2019-01-30T13:36:25.473Z,82.21
2019-01-30T13:38:52.077Z,82.10
2019-01-30T13:41:18.867Z,82.21
2019-01-30T13:43:45.595Z,82.66
2019-01-30T13:46:13.398Z,82.49
2019-01-30T13:48:40.123Z,82.67
2019-01-30T13:51:07.569Z,83.30
2019-01-30T13:53:34.208Z,83.08
2019-01-30T13:56:01.151Z,82.88
2019-01-30T13:58:27.829Z,82.93
2019-01-30T14:00:54.388Z,83.00
2019-01-30T14:03:21.094Z,83.26
2019-01-30T14:05:49.568Z,82.96
2019-01-30T14:08:16.259Z,83.12
2019-01-30T14:10:43.169Z,82.77
2019-01-30T14:13:09.921Z,82.86
2019-01-30T14:15:36.602Z,82.80
2019-01-30T14:18:03.501Z,83.04
2019-01-30T14:20:30.076Z,83.19
2019-01-30T14:22:56.670Z,82.94
2019-01-30T14:25:25.205Z,83.15
2019-01-30T14:27:52.181Z,83.42
2019-01-30T14:30:25.054Z,83.72
2019-01-30T14:32:52.153Z,83.64
2019-01-30T14:35:19.293Z,83.20
2019-01-30T14:37:47.767Z,83.08
2019-01-30T14:40:19.885Z,83.37
2019-01-30T14:42:48.004Z,83.14
2019-01-30T14:45:17.796Z,83.25
2019-01-30T14:47:47.867Z,82.96
2019-01-30T14:50:22.231Z,82.97
2019-01-30T14:52:49.333Z,83.40
2019-01-30T14:55:18.346Z,83.14
2019-01-30T14:57:45.321Z,83.50
2019-01-30T15:00:16.475Z,83.32
2019-01-30T15:02:43.385Z,83.44
2019-01-30T15:05:21.955Z,83.27
2019-01-30T15:07:42.475Z,83.59
2019-01-30T15:10:14.944Z,83.49
2019-01-30T15:12:41.716Z,83.28
2019-01-30T15:15:12.700Z,83.63
2019-01-30T15:17:39.341Z,83.68
2019-01-30T15:20:11.569Z,83.47
2019-01-30T15:22:38.242Z,83.80
2019-01-30T15:25:10.161Z,83.51
2019-01-30T15:27:37.385Z,83.27
2019-01-30T15:30:09.842Z,83.08
2019-01-30T15:32:36.387Z,83.05
2019-01-30T15:35:05.991Z,82.87
2019-01-30T15:37:32.601Z,83.21
2019-01-30T15:39:59.205Z,83.25
2019-01-30T15:42:25.887Z,83.44
2019-01-30T15:44:52.444Z,83.55
2019-01-30T15:47:19.074Z,83.32
2019-01-30T15:49:46.872Z,83.23
2019-01-30T15:52:13.623Z,83.17
2019-01-30T15:54:40.925Z,83.31
2019-01-30T15:57:08.701Z,82.92
2019-01-30T15:59:35.345Z,82.79
2019-01-30T16:02:02.073Z,82.64
2019-01-30T16:04:28.620Z,82.77
2019-01-30T16:06:55.418Z,82.94
2019-01-30T16:09:23.912Z,82.66
2019-01-30T16:11:50.658Z,83.07
2019-01-30T16:14:17.289Z,83.18
2019-01-30T16:16:43.860Z,82.78
2019-01-30T16:19:10.565Z,83.20
2019-01-30T16:21:37.204Z,83.66
2019-01-30T16:24:03.793Z,83.53
2019-01-30T16:26:30.396Z,83.41
2019-01-30T16:28:57.087Z,83.44
2019-01-30T16:31:23.672Z,83.21
2019-01-30T16:33:50.251Z,83.62
2019-01-30T16:36:20.944Z,83.19
2019-01-30T16:38:49.457Z,83.46
2019-01-30T16:41:16.391Z,83.38
2019-01-30T16:43:42.969Z,82.81
2019-01-30T16:46:09.536Z,83.07
2019-01-30T16:48:36.147Z,83.23
2019-01-30T16:51:02.736Z,83.67
2019-01-30T16:53:29.308Z,83.41
2019-01-30T16:55:55.925Z,83.29
2019-01-30T16:58:22.569Z,83.45
2019-01-30T17:00:49.186Z,83.55
2019-01-30T17:03:15.904Z,84.12
2019-01-30T17:05:45.812Z,83.60
2019-01-30T17:08:12.586Z,83.44
2019-01-30T17:10:39.208Z,83.43
2019-01-30T17:13:05.783Z,83.69
2019-01-30T17:15:36.857Z,83.43
2019-01-30T17:18:04.825Z,83.41
2019-01-30T17:20:35.641Z,83.44
2019-01-30T17:23:02.337Z,83.91
2019-01-30T17:25:29.104Z,83.88
2019-01-30T17:27:55.760Z,83.48
2019-01-30T17:30:26.325Z,83.64
2019-01-30T17:32:52.924Z,83.73
2019-01-30T17:35:19.517Z,83.75
2019-01-30T17:37:46.132Z,84.10
2019-01-30T17:40:18.474Z,83.69
2019-01-30T17:42:45.176Z,83.94
2019-01-30T17:45:11.926Z,83.97
2019-01-30T17:47:38.503Z,83.97
2019-01-30T17:50:10.832Z,84.14
2019-01-30T17:52:37.404Z,83.88
2019-01-30T17:55:05.378Z,84.06
2019-01-30T17:57:32.185Z,83.91
2019-01-30T17:59:58.767Z,83.99
2019-01-30T18:02:25.358Z,84.04
2019-01-30T18:04:52.049Z,84.31
2019-01-30T18:07:18.592Z,84.16
2019-01-30T18:09:45.365Z,84.21
2019-01-30T18:12:11.933Z,84.17
2019-01-30T18:14:38.520Z,84.44
2019-01-30T18:17:05.218Z,84.08
2019-01-30T18:19:31.847Z,84.14
2019-01-30T18:21:58.571Z,84.20
2019-01-30T18:24:25.132Z,83.92
2019-01-30T18:26:51.895Z,84.13
2019-01-30T18:29:18.466Z,84.26
2019-01-30T18:31:46.190Z,84.24
2019-01-30T18:34:13.556Z,84.16
2019-01-30T18:36:41.381Z,84.10
2019-01-30T18:39:08.362Z,84.28
2019-01-30T18:41:34.931Z,84.14
2019-01-30T18:44:01.668Z,84.75
2019-01-30T18:46:28.412Z,85.06
2019-01-30T18:48:56.549Z,84.84
2019-01-30T18:51:23.591Z,84.63
2019-01-30T18:53:50.227Z,84.57
2019-01-30T18:56:16.867Z,84.42
2019-01-30T18:58:44.588Z,84.44
2019-01-30T19:01:11.258Z,84.73
2019-01-30T19:03:37.833Z,84.04
2019-01-30T19:06:04.669Z,84.28
2019-01-30T19:08:31.550Z,84.51
2019-01-30T19:10:58.319Z,84.51
2019-01-30T19:13:24.969Z,84.53
2019-01-30T19:15:52.667Z,84.55
2019-01-30T19:18:19.216Z,84.43
2019-01-30T19:20:45.946Z,84.28
2019-01-30T19:23:12.658Z,84.30
2019-01-30T19:25:39.316Z,83.98
2019-01-30T19:28:07.470Z,84.23
2019-01-30T19:30:34.370Z,84.42
2019-01-30T19:33:01.152Z,84.48
2019-01-30T19:35:27.723Z,84.44
2019-01-30T19:37:55.387Z,84.31
2019-01-30T19:40:22.693Z,84.29
2019-01-30T19:42:49.468Z,83.98
2019-01-30T19:45:21.167Z,83.77
2019-01-30T19:47:48.068Z,83.91
2019-01-30T19:50:20.088Z,83.48
2019-01-30T19:52:46.660Z,83.56
2019-01-30T19:55:13.279Z,83.81
2019-01-30T19:57:39.859Z,83.84
2019-01-30T20:00:12.386Z,83.97
2019-01-30T20:02:39.010Z,84.17
2019-01-30T20:05:09.986Z,84.29
2019-01-30T20:07:36.645Z,84.04
2019-01-30T20:10:09.003Z,83.96
2019-01-30T20:12:35.673Z,83.33
2019-01-30T20:15:09.285Z,83.75
2019-01-30T20:17:36.241Z,83.73
2019-01-30T20:20:08.354Z,83.71
2019-01-30T20:22:34.888Z,83.85
2019-01-30T20:25:01.484Z,83.72
2019-01-30T20:27:28.251Z,83.54
2019-01-30T20:29:54.993Z,83.87
2019-01-30T20:32:21.676Z,83.75
2019-01-30T20:34:48.745Z,84.07
2019-01-30T20:37:25.807Z,84.28
2019-01-30T20:39:44.528Z,84.03
2019-01-30T20:42:12.371Z,84.23
2019-01-30T20:44:39.214Z,83.83
2019-01-30T20:47:07.126Z,84.44
2019-01-30T20:49:33.841Z,84.40
2019-01-30T20:52:00.505Z,84.03
2019-01-30T20:54:27.098Z,83.71
2019-01-30T20:56:57.717Z,84.03
2019-01-30T20:59:26.189Z,83.81
2019-01-30T21:01:52.785Z,84.04
2019-01-30T21:04:19.451Z,83.97
2019-01-30T21:06:46.332Z,83.88
2019-01-30T21:09:12.929Z,83.38
2019-01-30T21:11:43.530Z,83.82
2019-01-30T21:14:10.765Z,83.57
2019-01-30T21:16:37.496Z,83.47
2019-01-30T21:19:04.257Z,83.14
2019-01-30T21:21:31.476Z,83.44
2019-01-30T21:23:58.246Z,83.64
2019-01-30T21:26:24.996Z,84.03
2019-01-30T21:28:51.730Z,83.67
2019-01-30T21:31:18.374Z,83.23
2019-01-30T21:33:45.288Z,83.67
2019-01-30T21:36:12.113Z,83.82
2019-01-30T21:38:38.904Z,83.53
2019-01-30T21:41:05.458Z,83.24
2019-01-30T21:43:32.218Z,83.53
2019-01-30T21:45:58.814Z,83.35
2019-01-30T21:48:25.464Z,83.64
2019-01-30T21:50:52.098Z,83.65
2019-01-30T21:53:18.653Z,83.99
2019-01-30T21:55:45.233Z,83.86
2019-01-30T21:58:11.805Z,83.89
2019-01-30T22:00:38.487Z,83.84
2019-01-30T22:03:05.072Z,84.83
2019-01-30T22:05:33.569Z,84.69
2019-01-30T22:08:01.383Z,84.40
2019-01-30T22:10:28.850Z,84.33
2019-01-30T22:12:55.428Z,84.24
2019-01-30T22:15:22.018Z,84.12
2019-01-30T22:17:48.625Z,84.02
2019-01-30T22:20:19.835Z,83.87
2019-01-30T22:22:46.512Z,84.07
2019-01-30T22:25:20.342Z,83.79
2019-01-30T22:27:46.042Z,84.17
2019-01-30T22:30:17.830Z,84.05
2019-01-30T22:32:44.962Z,83.96
2019-01-30T22:35:11.676Z,83.93
2019-01-30T22:37:38.289Z,83.64
2019-01-30T22:40:11.799Z,84.24
2019-01-30T22:42:38.389Z,84.31
2019-01-30T22:45:09.821Z,84.23
2019-01-30T22:47:36.406Z,84.34
2019-01-30T22:50:07.224Z,84.57
2019-01-30T22:52:33.779Z,84.33
2019-01-30T22:55:00.469Z,84.46
2019-01-30T22:57:27.244Z,84.22
2019-01-30T22:59:53.999Z,84.22
2019-01-30T23:02:20.686Z,84.08
2019-01-30T23:04:53.004Z,83.12
2019-01-30T23:07:25.322Z,83.14
2019-01-30T23:09:57.633Z,83.55
2019-01-30T23:12:28.096Z,83.78
2019-01-30T23:15:00.623Z,84.11
2019-01-30T23:17:33.014Z,83.56
2019-01-30T23:20:05.320Z,83.83
2019-01-30T23:22:33.901Z,83.95
2019-01-30T23:25:06.285Z,84.07
2019-01-30T23:27:38.591Z,84.17
2019-01-30T23:30:10.878Z,83.89
2019-01-30T23:32:43.446Z,84.05
2019-01-30T23:35:15.823Z,84.10
2019-01-30T23:37:46.186Z,84.34
2019-01-30T23:40:14.669Z,84.32
2019-01-30T23:42:47.063Z,84.42
2019-01-30T23:45:19.359Z,84.47
2019-01-30T23:47:51.751Z,84.46
2019-01-30T23:50:25.960Z,84.23
2019-01-30T23:52:58.353Z,83.96
2019-01-30T23:55:30.658Z,84.16
2019-01-30T23:58:03.047Z,83.94
